sensor_id;sensor_type;location;lat;lon;timestamp;pressure;altitude;pressure_sealevel;temperature;humidity
64243;BME280;50573;51.512;5.386;2023-04-04T00:08:12;102655.59;;;1.60;84.80
64243;BME280;50573;51.512;5.386;2023-04-04T00:18:15;102657.94;;;1.41;85.26
64243;BME280;50573;51.512;5.386;2023-04-04T00:28:20;102665.22;;;1.32;87.39
64243;BME280;50573;51.512;5.386;2023-04-04T00:38:23;102662.72;;;1.27;87.03
64243;BME280;50573;51.512;5.386;2023-04-04T00:48:28;102670.63;;;1.23;87.24
64243;BME280;50573;51.512;5.386;2023-04-04T00:58:32;102665.91;;;1.20;88.56
64243;BME280;50573;51.512;5.386;2023-04-04T01:08:36;102673.00;;;1.25;87.63
64243;BME280;50573;51.512;5.386;2023-04-04T01:18:40;102655.50;;;1.19;87.27
64243;BME280;50573;51.512;5.386;2023-04-04T01:28:45;102638.66;;;1.10;88.18
64243;BME280;50573;51.512;5.386;2023-04-04T01:38:52;102639.25;;;1.15;88.57
64243;BME280;50573;51.512;5.386;2023-04-04T01:48:58;102637.06;;;1.09;88.65
64243;BME280;50573;51.512;5.386;2023-04-04T01:59:04;102638.53;;;0.98;88.70
64243;BME280;50573;51.512;5.386;2023-04-04T02:09:09;102632.31;;;0.77;89.87
64243;BME280;50573;51.512;5.386;2023-04-04T02:19:12;102635.22;;;0.55;90.84
64243;BME280;50573;51.512;5.386;2023-04-04T02:29:17;102637.63;;;0.31;89.55
64243;BME280;50573;51.512;5.386;2023-04-04T02:39:20;102647.13;;;0.11;92.09
64243;BME280;50573;51.512;5.386;2023-04-04T02:49:26;102642.41;;;0.08;93.18
64243;BME280;50573;51.512;5.386;2023-04-04T02:59:32;102619.19;;;0.03;93.49
64243;BME280;50573;51.512;5.386;2023-04-04T03:09:37;102620.47;;;0.06;94.14
64243;BME280;50573;51.512;5.386;2023-04-04T03:19:40;102628.84;;;0.05;93.48
64243;BME280;50573;51.512;5.386;2023-04-04T03:29:45;102637.81;;;0.00;92.34
64243;BME280;50573;51.512;5.386;2023-04-04T03:39:48;102624.25;;;-0.12;93.60
64243;BME280;50573;51.512;5.386;2023-04-04T03:49:54;102613.53;;;-0.21;93.65
64243;BME280;50573;51.512;5.386;2023-04-04T03:59:58;102599.22;;;-0.25;94.43
64243;BME280;50573;51.512;5.386;2023-04-04T04:10:03;102614.31;;;-0.29;93.38
64243;BME280;50573;51.512;5.386;2023-04-04T04:20:08;102605.97;;;-0.36;96.96
64243;BME280;50573;51.512;5.386;2023-04-04T04:30:18;102602.34;;;-0.48;95.90
64243;BME280;50573;51.512;5.386;2023-04-04T04:40:22;102594.94;;;-0.51;97.54
64243;BME280;50573;51.512;5.386;2023-04-04T04:50:43;102595.56;;;-0.54;96.48
64243;BME280;50573;51.512;5.386;2023-04-04T05:00:49;102621.06;;;-0.65;95.67
64243;BME280;50573;51.512;5.386;2023-04-04T05:10:57;102626.53;;;-0.79;96.63
64243;BME280;50573;51.512;5.386;2023-04-04T05:21:03;102633.91;;;-0.76;95.86
64243;BME280;50573;51.512;5.386;2023-04-04T05:31:09;102636.72;;;-0.81;96.09
64243;BME280;50573;51.512;5.386;2023-04-04T05:41:12;102648.25;;;-0.72;97.80
64243;BME280;50573;51.512;5.386;2023-04-04T05:51:18;102641.06;;;-0.54;96.81
64243;BME280;50573;51.512;5.386;2023-04-04T06:01:35;102654.63;;;-0.34;95.57
64243;BME280;50573;51.512;5.386;2023-04-04T06:11:46;102651.97;;;0.00;96.46
64243;BME280;50573;51.512;5.386;2023-04-04T06:21:50;102659.84;;;0.40;94.05
64243;BME280;50573;51.512;5.386;2023-04-04T06:31:55;102670.34;;;0.79;90.52
64243;BME280;50573;51.512;5.386;2023-04-04T06:42:09;102677.63;;;1.16;88.69
64243;BME280;50573;51.512;5.386;2023-04-04T06:52:21;102687.53;;;1.53;86.87
64243;BME280;50573;51.512;5.386;2023-04-04T07:02:25;102687.84;;;1.81;85.60
64243;BME280;50573;51.512;5.386;2023-04-04T07:12:30;102689.16;;;2.16;84.56
64243;BME280;50573;51.512;5.386;2023-04-04T07:22:36;102687.41;;;2.52;83.62
64243;BME280;50573;51.512;5.386;2023-04-04T07:32:40;102687.19;;;3.02;81.42
64243;BME280;50573;51.512;5.386;2023-04-04T07:42:43;102680.84;;;3.55;77.68
64243;BME280;50573;51.512;5.386;2023-04-04T07:52:49;102687.22;;;4.14;74.30
64243;BME280;50573;51.512;5.386;2023-04-04T08:02:55;102687.88;;;4.51;72.41
64243;BME280;50573;51.512;5.386;2023-04-04T08:13:01;102686.06;;;4.70;67.77
64243;BME280;50573;51.512;5.386;2023-04-04T08:23:06;102696.22;;;5.20;65.08
64243;BME280;50573;51.512;5.386;2023-04-04T08:33:11;102699.75;;;5.55;61.68
64243;BME280;50573;51.512;5.386;2023-04-04T08:43:15;102696.06;;;5.79;57.56
64243;BME280;50573;51.512;5.386;2023-04-04T08:53:20;102682.72;;;6.05;55.58
64243;BME280;50573;51.512;5.386;2023-04-04T09:03:24;102682.47;;;6.29;54.78
64243;BME280;50573;51.512;5.386;2023-04-04T09:13:29;102688.56;;;6.45;53.92
64243;BME280;50573;51.512;5.386;2023-04-04T09:23:33;102686.75;;;6.71;52.75
64243;BME280;50573;51.512;5.386;2023-04-04T09:33:37;102685.69;;;6.57;52.57
64243;BME280;50573;51.512;5.386;2023-04-04T09:43:43;102689.09;;;6.73;51.89
64243;BME280;50573;51.512;5.386;2023-04-04T09:53:49;102682.50;;;6.93;49.33
64243;BME280;50573;51.512;5.386;2023-04-04T10:03:53;102674.88;;;7.02;50.14
64243;BME280;50573;51.512;5.386;2023-04-04T10:13:58;102675.06;;;7.13;47.64
64243;BME280;50573;51.512;5.386;2023-04-04T10:24:03;102668.78;;;7.57;48.30
64243;BME280;50573;51.512;5.386;2023-04-04T10:34:16;102666.53;;;7.89;48.69
64243;BME280;50573;51.512;5.386;2023-04-04T10:44:23;102659.41;;;7.77;49.12
64243;BME280;50573;51.512;5.386;2023-04-04T10:54:32;102640.19;;;8.22;48.48
64243;BME280;50573;51.512;5.386;2023-04-04T11:04:37;102646.69;;;8.14;47.84
64243;BME280;50573;51.512;5.386;2023-04-04T11:25:30;102614.38;;;8.35;46.45
64243;BME280;50573;51.512;5.386;2023-04-04T11:35:38;102599.47;;;8.63;45.66
64243;BME280;50573;51.512;5.386;2023-04-04T11:45:45;102605.53;;;8.89;45.70
64243;BME280;50573;51.512;5.386;2023-04-04T11:55:50;102598.03;;;8.76;46.18
64243;BME280;50573;51.512;5.386;2023-04-04T12:05:53;102590.53;;;9.06;44.71
64243;BME280;50573;51.512;5.386;2023-04-04T12:15:58;102564.41;;;9.55;46.43
64243;BME280;50573;51.512;5.386;2023-04-04T12:26:01;102563.63;;;9.58;43.22
64243;BME280;50573;51.512;5.386;2023-04-04T12:36:08;102555.81;;;9.50;43.83
64243;BME280;50573;51.512;5.386;2023-04-04T12:46:11;102542.72;;;9.80;43.09
64243;BME280;50573;51.512;5.386;2023-04-04T12:56:15;102545.09;;;9.99;42.42
64243;BME280;50573;51.512;5.386;2023-04-04T13:06:19;102513.31;;;10.45;43.15
64243;BME280;50573;51.512;5.386;2023-04-04T13:16:31;102496.53;;;10.33;41.98
64243;BME280;50573;51.512;5.386;2023-04-04T13:26:36;102494.22;;;10.31;41.87
64243;BME280;50573;51.512;5.386;2023-04-04T13:36:40;102481.38;;;10.35;42.68
64243;BME280;50573;51.512;5.386;2023-04-04T13:46:45;102477.44;;;10.75;43.74
64243;BME280;50573;51.512;5.386;2023-04-04T13:56:50;102457.25;;;10.58;42.10
64243;BME280;50573;51.512;5.386;2023-04-04T14:06:55;102442.03;;;10.71;41.91
64243;BME280;50573;51.512;5.386;2023-04-04T14:16:59;102428.81;;;10.66;42.80
64243;BME280;50573;51.512;5.386;2023-04-04T14:27:03;102420.66;;;10.45;41.89
64243;BME280;50573;51.512;5.386;2023-04-04T14:37:07;102414.75;;;10.78;41.36
64243;BME280;50573;51.512;5.386;2023-04-04T14:47:10;102411.59;;;10.94;41.09
64243;BME280;50573;51.512;5.386;2023-04-04T14:57:15;102396.16;;;11.46;41.40
64243;BME280;50573;51.512;5.386;2023-04-04T15:07:18;102386.66;;;12.19;38.19
64243;BME280;50573;51.512;5.386;2023-04-04T15:17:26;102376.94;;;12.51;38.17
64243;BME280;50573;51.512;5.386;2023-04-04T15:27:29;102370.78;;;12.78;37.64
64243;BME280;50573;51.512;5.386;2023-04-04T15:37:34;102381.84;;;12.67;37.47
64243;BME280;50573;51.512;5.386;2023-04-04T15:47:37;102356.13;;;12.24;39.63
64243;BME280;50573;51.512;5.386;2023-04-04T15:57:42;102348.28;;;11.89;40.83
64243;BME280;50573;51.512;5.386;2023-04-04T16:07:45;102337.25;;;10.79;42.24
64243;BME280;50573;51.512;5.386;2023-04-04T16:17:49;102321.81;;;10.45;42.34
64243;BME280;50573;51.512;5.386;2023-04-04T16:27:54;102310.97;;;10.27;43.44
64243;BME280;50573;51.512;5.386;2023-04-04T16:37:58;102307.88;;;10.11;44.03
64243;BME280;50573;51.512;5.386;2023-04-04T16:48:02;102306.72;;;10.19;44.41
64243;BME280;50573;51.512;5.386;2023-04-04T16:58:07;102298.16;;;10.10;43.88
64243;BME280;50573;51.512;5.386;2023-04-04T17:08:10;102297.69;;;10.40;44.35
64243;BME280;50573;51.512;5.386;2023-04-04T17:18:14;102296.19;;;10.07;43.59
64243;BME280;50573;51.512;5.386;2023-04-04T17:28:17;102281.44;;;9.94;44.95
64243;BME280;50573;51.512;5.386;2023-04-04T17:38:22;102281.06;;;9.85;45.59
64243;BME280;50573;51.512;5.386;2023-04-04T17:48:26;102293.13;;;9.66;47.35
64243;BME280;50573;51.512;5.386;2023-04-04T17:58:34;102292.75;;;9.40;48.67
64243;BME280;50573;51.512;5.386;2023-04-04T18:08:37;102281.03;;;9.15;50.34
64243;BME280;50573;51.512;5.386;2023-04-04T18:18:42;102278.28;;;8.94;50.15
64243;BME280;50573;51.512;5.386;2023-04-04T18:28:45;102273.13;;;8.64;49.49
64243;BME280;50573;51.512;5.386;2023-04-04T18:38:50;102276.59;;;8.51;51.67
64243;BME280;50573;51.512;5.386;2023-04-04T18:48:54;102285.38;;;8.30;52.19
64243;BME280;50573;51.512;5.386;2023-04-04T18:58:58;102276.34;;;8.08;52.88
64243;BME280;50573;51.512;5.386;2023-04-04T19:09:02;102282.78;;;7.90;53.63
64243;BME280;50573;51.512;5.386;2023-04-04T19:19:07;102282.22;;;7.63;55.77
64243;BME280;50573;51.512;5.386;2023-04-04T19:29:11;102287.84;;;7.44;56.06
64243;BME280;50573;51.512;5.386;2023-04-04T19:39:22;102296.59;;;7.24;56.91
64243;BME280;50573;51.512;5.386;2023-04-04T19:49:29;102296.41;;;7.06;58.95
64243;BME280;50573;51.512;5.386;2023-04-04T20:00:07;102293.09;;;6.86;61.46
64243;BME280;50573;51.512;5.386;2023-04-04T20:10:34;102283.19;;;6.68;62.22
64243;BME280;50573;51.512;5.386;2023-04-04T20:20:49;102277.31;;;6.59;62.83
64243;BME280;50573;51.512;5.386;2023-04-04T20:31:00;102278.31;;;6.47;63.40
64243;BME280;50573;51.512;5.386;2023-04-04T20:41:17;102270.06;;;6.37;64.59
64243;BME280;50573;51.512;5.386;2023-04-04T20:51:26;102279.97;;;6.26;64.72
64243;BME280;50573;51.512;5.386;2023-04-04T21:01:31;102278.84;;;6.01;66.72
64243;BME280;50573;51.512;5.386;2023-04-04T21:11:34;102260.66;;;5.75;66.59
64243;BME280;50573;51.512;5.386;2023-04-04T21:21:40;102270.06;;;5.58;67.91
64243;BME280;50573;51.512;5.386;2023-04-04T21:31:43;102265.84;;;5.38;68.50
64243;BME280;50573;51.512;5.386;2023-04-04T21:41:51;102266.34;;;5.21;71.58
64243;BME280;50573;51.512;5.386;2023-04-04T21:51:54;102258.00;;;5.07;73.79
64243;BME280;50573;51.512;5.386;2023-04-04T22:01:58;102247.56;;;4.87;74.56
64243;BME280;50573;51.512;5.386;2023-04-04T22:12:02;102238.81;;;4.52;75.43
64243;BME280;50573;51.512;5.386;2023-04-04T22:22:06;102223.75;;;4.12;76.64
64243;BME280;50573;51.512;5.386;2023-04-04T22:32:09;102217.38;;;3.86;79.88
64243;BME280;50573;51.512;5.386;2023-04-04T22:42:13;102209.50;;;3.62;80.91
64243;BME280;50573;51.512;5.386;2023-04-04T22:52:16;102204.66;;;3.52;87.80
64243;BME280;50573;51.512;5.386;2023-04-04T23:02:24;102196.72;;;3.24;86.90
64243;BME280;50573;51.512;5.386;2023-04-04T23:12:27;102198.09;;;3.03;85.81
64243;BME280;50573;51.512;5.386;2023-04-04T23:22:32;102191.56;;;2.88;85.75
64243;BME280;50573;51.512;5.386;2023-04-04T23:32:35;102188.25;;;2.79;85.43
64243;BME280;50573;51.512;5.386;2023-04-04T23:42:39;102164.03;;;2.63;88.24
64243;BME280;50573;51.512;5.386;2023-04-04T23:52:42;102162.53;;;2.50;86.71
